Time;durP1;ratioP1;P1;durP2;ratioP2;P2;SDS_P1;SDS_P2;PMS_P1;PMS_P2;Temp;Humidity;BMP_temperature;BMP_pressure;BME280_temperature;BME280_humidity;BME280_pressure;Samples;Min_cycle;Max_cycle;Signal;HPM_P1;HPM_P2
2023/09/26 00:00:25;;;;;;;3.75;2.15;;;;;;;10.31;100.00;101495.91;5214366;28;20555;-72
2023/09/26 00:02:55;;;;;;;2.47;1.80;;;;;;;10.19;100.00;101493.53;5205332;28;20032;-72
2023/09/26 00:05:25;;;;;;;5.00;2.10;;;;;;;10.28;100.00;101489.88;5192656;28;20024;-72
2023/09/26 00:07:56;;;;;;;4.13;2.20;;;;;;;10.34;100.00;101493.25;5202059;28;20044;-72
2023/09/26 00:10:26;;;;;;;3.63;2.08;;;;;;;10.47;100.00;101496.47;5199593;28;20032;-72
2023/09/26 00:12:57;;;;;;;3.22;1.88;;;;;;;10.34;100.00;101492.41;5213359;28;20032;-70
2023/09/26 00:15:27;;;;;;;3.45;2.00;;;;;;;10.44;100.00;101486.06;5206083;28;20033;-70
2023/09/26 00:17:58;;;;;;;5.85;2.13;;;;;;;10.45;100.00;101485.19;5227132;28;20028;-70
2023/09/26 00:20:28;;;;;;;3.40;2.15;;;;;;;10.44;100.00;101486.06;5190477;28;20104;-70
2023/09/26 00:22:58;;;;;;;4.55;2.20;;;;;;;10.49;100.00;101492.09;5213773;28;20025;-70
2023/09/26 00:25:28;;;;;;;4.00;2.25;;;;;;;10.50;100.00;101489.44;5216405;28;20040;-71
2023/09/26 00:27:59;;;;;;;3.10;2.15;;;;;;;10.57;100.00;101492.78;5224653;28;20024;-70
2023/09/26 00:30:29;;;;;;;3.90;2.10;;;;;;;10.52;100.00;101492.88;5222226;28;20307;-69
2023/09/26 00:32:59;;;;;;;8.63;2.28;;;;;;;10.42;100.00;101490.47;5216557;28;20036;-70
2023/09/26 00:35:30;;;;;;;4.78;2.30;;;;;;;10.54;100.00;101490.22;5187372;28;20078;-70
2023/09/26 00:38:00;;;;;;;5.97;2.50;;;;;;;10.48;100.00;101496.44;5215280;28;20036;-70
2023/09/26 00:40:31;;;;;;;4.13;1.90;;;;;;;10.53;100.00;101498.97;5213739;28;20090;-70
2023/09/26 00:43:01;;;;;;;3.92;2.10;;;;;;;10.60;100.00;101498.81;5220859;28;20024;-70
2023/09/26 00:45:32;;;;;;;4.40;2.10;;;;;;;10.67;100.00;101504.78;5215400;28;20074;-70
2023/09/26 00:48:05;;;;;;;3.80;2.00;;;;;;;10.58;100.00;101500.59;5202572;28;20087;-70
2023/09/26 00:50:35;;;;;;;6.90;2.28;;;;;;;10.38;100.00;101504.50;5199363;28;20035;-70
2023/09/26 00:53:05;;;;;;;5.90;2.50;;;;;;;10.32;100.00;101497.63;5221865;28;20493;-70
2023/09/26 00:55:37;;;;;;;4.13;2.30;;;;;;;10.47;100.00;101493.84;5200250;28;20025;-70
2023/09/26 00:58:09;;;;;;;4.22;2.28;;;;;;;10.20;100.00;101494.41;5221111;28;20028;-70
2023/09/26 01:00:40;;;;;;;8.43;2.78;;;;;;;10.11;100.00;101499.78;5219281;28;20420;-70
2023/09/26 01:03:11;;;;;;;3.88;2.28;;;;;;;10.26;100.00;101495.16;5202367;28;20029;-70
2023/09/26 01:05:42;;;;;;;4.20;2.30;;;;;;;10.14;100.00;101497.16;5223516;28;20021;-70
2023/09/26 01:08:12;;;;;;;6.03;2.60;;;;;;;10.15;100.00;101491.03;5215964;28;20043;-70
2023/09/26 01:10:43;;;;;;;3.05;1.88;;;;;;;9.96;100.00;101495.69;5216336;28;20048;-70
2023/09/26 01:13:13;;;;;;;3.75;2.33;;;;;;;9.95;100.00;101493.97;5208802;28;20033;-70
2023/09/26 01:15:43;;;;;;;3.22;2.38;;;;;;;10.03;100.00;101492.09;5228764;28;20393;-70
2023/09/26 01:18:16;;;;;;;3.25;2.40;;;;;;;10.10;100.00;101487.63;5229472;28;20106;-70
2023/09/26 01:20:46;;;;;;;3.97;2.28;;;;;;;10.22;100.00;101482.19;5210420;28;20037;-70
2023/09/26 01:23:18;;;;;;;4.82;2.47;;;;;;;10.32;100.00;101481.97;5225997;28;20024;-70
2023/09/26 01:25:49;;;;;;;4.82;2.13;;;;;;;10.31;100.00;101480.25;5224079;28;20091;-70
2023/09/26 01:28:19;;;;;;;4.53;2.38;;;;;;;10.27;100.00;101482.94;5221007;28;20448;-70
2023/09/26 01:30:49;;;;;;;5.28;2.53;;;;;;;10.07;100.00;101482.47;5217318;28;20016;-70
2023/09/26 01:33:21;;;;;;;7.00;2.58;;;;;;;9.93;100.00;101480.09;5206826;28;20106;-70
2023/09/26 01:35:51;;;;;;;4.75;2.50;;;;;;;9.78;100.00;101480.38;5188162;28;20040;-70
2023/09/26 01:38:25;;;;;;;7.22;2.92;;;;;;;9.84;100.00;101485.47;5210907;28;20302;-70
2023/09/26 01:40:55;;;;;;;4.97;2.60;;;;;;;9.83;100.00;101472.47;5194373;28;20383;-70
2023/09/26 01:43:26;;;;;;;5.65;2.63;;;;;;;9.93;100.00;101474.00;5219340;28;20036;-70
2023/09/26 01:45:56;;;;;;;3.53;2.40;;;;;;;9.99;100.00;101471.28;5214924;28;20488;-70
2023/09/26 01:48:27;;;;;;;4.68;2.75;;;;;;;9.79;100.00;101466.44;5216620;28;20028;-70
2023/09/26 01:50:57;;;;;;;5.05;2.60;;;;;;;9.85;100.00;101462.84;5194638;28;20097;-69
2023/09/26 01:53:27;;;;;;;4.55;2.38;;;;;;;9.89;100.00;101456.66;5219210;28;20025;-70
2023/09/26 01:55:59;;;;;;;4.63;2.65;;;;;;;9.88;100.00;101466.28;5194876;28;20021;-70
2023/09/26 01:58:29;;;;;;;8.68;2.92;;;;;;;9.92;100.00;101464.44;5216555;28;20248;-70
2023/09/26 02:00:59;;;;;;;3.63;2.53;;;;;;;9.88;100.00;101452.34;5217965;28;20052;-70
2023/09/26 02:03:30;;;;;;;6.80;2.92;;;;;;;9.87;100.00;101453.22;5202260;28;20047;-70
2023/09/26 02:06:00;;;;;;;4.45;2.80;;;;;;;9.84;100.00;101454.13;5209096;28;20477;-70
2023/09/26 02:08:31;;;;;;;5.50;3.03;;;;;;;9.88;100.00;101452.34;5214158;28;20112;-70
2023/09/26 02:11:05;;;;;;;4.75;3.30;;;;;;;9.92;100.00;101454.88;5217687;28;20035;-70
2023/09/26 02:13:35;;;;;;;5.63;3.00;;;;;;;9.87;100.00;101451.50;5208720;28;20119;-70
2023/09/26 02:16:11;;;;;;;4.85;3.05;;;;;;;9.89;100.00;101451.44;5210049;28;20040;-70
2023/09/26 02:18:42;;;;;;;5.22;3.22;;;;;;;9.81;100.00;101454.19;5198561;28;20107;-70
2023/09/26 02:21:16;;;;;;;4.75;3.20;;;;;;;9.88;100.00;101460.16;5221700;28;20033;-72
2023/09/26 02:23:47;;;;;;;5.32;3.00;;;;;;;9.92;100.00;101456.59;5213781;28;20465;-72
2023/09/26 02:26:18;;;;;;;6.82;3.47;;;;;;;10.00;100.00;101452.97;5209987;28;20044;-72
2023/09/26 02:28:49;;;;;;;4.63;3.00;;;;;;;10.03;100.00;101454.69;5193192;28;20044;-72
2023/09/26 02:31:19;;;;;;;9.95;3.40;;;;;;;10.06;100.00;101452.03;5208994;28;20111;-73
2023/09/26 02:33:49;;;;;;;5.55;2.85;;;;;;;9.95;100.00;101451.31;5213453;28;20032;-72
2023/09/26 02:36:19;;;;;;;3.70;2.58;;;;;;;9.87;100.00;101445.41;5217075;28;20029;-72
2023/09/26 02:38:50;;;;;;;4.78;3.20;;;;;;;9.90;100.00;101453.16;5211478;28;20020;-72
2023/09/26 02:41:20;;;;;;;6.95;3.30;;;;;;;9.95;100.00;101446.97;5209030;28;20028;-72
2023/09/26 02:43:55;;;;;;;6.13;2.85;;;;;;;9.94;100.00;101440.03;5203406;28;20178;-72
2023/09/26 02:46:25;;;;;;;4.80;3.03;;;;;;;9.92;100.00;101435.72;5198604;28;20033;-72
2023/09/26 02:48:55;;;;;;;8.85;3.05;;;;;;;9.87;100.00;101443.66;5200357;28;20842;-72
2023/09/26 02:51:28;;;;;;;4.20;2.85;;;;;;;10.00;100.00;101454.72;5216938;28;20117;-72
2023/09/26 02:53:59;;;;;;;8.60;3.17;;;;;;;9.84;100.00;101448.06;5200450;28;20040;-73
2023/09/26 02:56:29;;;;;;;7.75;3.55;;;;;;;9.81;100.00;101450.75;5196501;28;20024;-73
2023/09/26 02:59:00;;;;;;;6.20;3.50;;;;;;;9.75;100.00;101443.88;5223947;28;20047;-73
2023/09/26 03:01:30;;;;;;;6.03;3.13;;;;;;;9.66;100.00;101443.19;5219402;28;20214;-72
2023/09/26 03:04:00;;;;;;;5.43;3.35;;;;;;;9.69;100.00;101437.91;5221894;28;20378;-72
2023/09/26 03:06:31;;;;;;;5.30;3.63;;;;;;;9.79;100.00;101436.88;5218604;28;20355;-72
2023/09/26 03:09:01;;;;;;;5.68;3.35;;;;;;;9.79;100.00;101439.47;5212315;28;20288;-73
2023/09/26 03:11:31;;;;;;;6.00;3.70;;;;;;;9.75;100.00;101437.78;5190450;28;20040;-72
2023/09/26 03:14:02;;;;;;;7.47;3.60;;;;;;;9.81;100.00;101448.13;5204515;28;20049;-72
2023/09/26 03:16:32;;;;;;;5.78;3.95;;;;;;;9.65;100.00;101444.94;5219784;28;20032;-72
2023/09/26 03:19:02;;;;;;;6.93;4.05;;;;;;;9.66;100.00;101443.19;5195792;28;20108;-72
2023/09/26 03:21:33;;;;;;;7.05;4.53;;;;;;;9.73;100.00;101444.78;5211841;28;20040;-72
2023/09/26 03:24:03;;;;;;;12.77;4.32;;;;;;;9.78;100.00;101438.59;5218844;28;20095;-73
2023/09/26 03:26:34;;;;;;;6.40;4.22;;;;;;;9.70;100.00;101437.03;5210790;28;20112;-72
2023/09/26 03:29:04;;;;;;;7.07;4.18;;;;;;;9.66;100.00;101438.81;5211292;28;20524;-73
2023/09/26 03:31:34;;;;;;;7.35;4.00;;;;;;;9.74;100.00;101442.16;5213041;28;20459;-72
2023/09/26 03:34:05;;;;;;;7.05;4.00;;;;;;;9.73;100.00;101439.56;5216046;28;20028;-72
2023/09/26 03:36:37;;;;;;;7.45;3.95;;;;;;;9.64;100.00;101429.31;5217881;28;20356;-72
2023/09/26 03:39:07;;;;;;;8.82;4.10;;;;;;;9.69;100.00;101428.31;5204535;28;20540;-72
2023/09/26 03:41:37;;;;;;;8.32;3.80;;;;;;;9.59;100.00;101426.78;5218409;28;20111;-73
2023/09/26 03:44:08;;;;;;;8.38;4.15;;;;;;;9.53;100.00;101437.34;5215794;28;20268;-73
2023/09/26 03:46:38;;;;;;;7.13;4.13;;;;;;;9.61;100.00;101425.00;5216488;28;20029;-73
2023/09/26 03:49:08;;;;;;;7.55;4.22;;;;;;;9.70;100.00;101422.25;5213883;28;20021;-73
2023/09/26 03:51:39;;;;;;;8.02;4.13;;;;;;;9.54;100.00;101431.22;5201944;28;20021;-73
2023/09/26 03:54:09;;;;;;;6.40;4.13;;;;;;;9.51;100.00;101423.44;5203292;28;20132;-72
2023/09/26 03:56:39;;;;;;;6.35;4.40;;;;;;;9.56;100.00;101421.63;5184090;28;20036;-73
2023/09/26 03:59:12;;;;;;;6.07;4.15;;;;;;;9.68;100.00;101420.53;5223326;28;20048;-72
2023/09/26 04:01:48;;;;;;;8.90;4.00;;;;;;;9.69;100.00;101417.88;5212026;28;20021;-73
2023/09/26 04:04:18;;;;;;;10.07;4.60;;;;;;;9.61;100.00;101409.34;5192162;28;20025;-72
2023/09/26 04:06:48;;;;;;;7.20;4.50;;;;;;;9.65;100.00;101416.22;5181454;28;20036;-73
2023/09/26 04:09:19;;;;;;;8.55;4.70;;;;;;;9.59;100.00;101410.25;5195357;28;20017;-73
2023/09/26 04:11:49;;;;;;;6.22;4.07;;;;;;;9.65;100.00;101410.16;5199012;28;20366;-72
2023/09/26 04:14:19;;;;;;;8.23;4.35;;;;;;;9.63;100.00;101407.56;5205049;28;20060;-72
2023/09/26 04:16:49;;;;;;;7.85;4.95;;;;;;;9.56;100.00;101405.97;5213632;28;20068;-73
2023/09/26 04:19:20;;;;;;;8.02;4.78;;;;;;;9.64;100.00;101409.28;5204696;28;20025;-72
2023/09/26 04:21:53;;;;;;;7.53;4.25;;;;;;;9.63;100.00;101398.88;5219835;28;20232;-73
2023/09/26 04:24:24;;;;;;;7.25;4.20;;;;;;;9.65;100.00;101394.50;5210240;28;20199;-72
2023/09/26 04:26:54;;;;;;;7.18;4.57;;;;;;;9.78;100.00;101393.34;5190822;28;20605;-73
2023/09/26 04:29:25;;;;;;;7.00;4.28;;;;;;;9.80;100.00;101396.81;5204101;28;20541;-72
2023/09/26 04:31:55;;;;;;;7.35;4.53;;;;;;;9.65;100.00;101400.56;5208118;28;20079;-72
2023/09/26 04:34:27;;;;;;;7.90;4.40;;;;;;;9.76;100.00;101395.13;5194311;28;20029;-72
2023/09/26 04:36:58;;;;;;;8.80;4.80;;;;;;;9.60;100.00;101391.97;5166901;28;20115;-72
2023/09/26 04:39:28;;;;;;;8.35;4.93;;;;;;;9.51;100.00;101391.28;5150361;28;20036;-72
2023/09/26 04:41:59;;;;;;;7.32;4.80;;;;;;;9.52;100.00;101390.38;5194164;28;20025;-73
2023/09/26 04:44:29;;;;;;;7.70;4.35;;;;;;;9.60;100.00;101385.88;5212055;28;20047;-72
2023/09/26 04:46:59;;;;;;;7.10;4.57;;;;;;;9.58;100.00;101390.25;5213565;28;20406;-73
2023/09/26 04:49:30;;;;;;;8.23;4.75;;;;;;;9.29;100.00;101402.97;5200604;28;20029;-72
2023/09/26 04:52:01;;;;;;;10.60;4.97;;;;;;;9.16;100.00;101391.88;5205766;28;20025;-72
2023/09/26 04:54:32;;;;;;;7.50;4.80;;;;;;;9.12;100.00;101391.09;5195686;28;20025;-72
2023/09/26 04:57:02;;;;;;;8.15;4.88;;;;;;;9.12;100.00;101391.97;5203583;28;20261;-73
2023/09/26 04:59:32;;;;;;;11.13;5.47;;;;;;;9.20;100.00;101382.25;5199584;28;20032;-72
2023/09/26 05:02:03;;;;;;;7.32;4.97;;;;;;;9.24;100.00;101376.09;5213374;28;20040;-72
2023/09/26 05:04:33;;;;;;;6.00;4.45;;;;;;;9.19;100.00;101383.16;5201098;28;20024;-72
2023/09/26 05:07:04;;;;;;;8.45;5.18;;;;;;;9.22;100.00;101383.97;5211758;28;20083;-72
2023/09/26 05:09:36;;;;;;;10.25;5.35;;;;;;;9.21;100.00;101381.38;5202876;28;20176;-71
2023/09/26 05:12:07;;;;;;;7.68;5.40;;;;;;;9.20;100.00;101380.53;5200828;28;20803;-72
2023/09/26 05:14:37;;;;;;;12.48;5.85;;;;;;;9.32;100.00;101379.44;5207251;28;20036;-72
2023/09/26 05:17:07;;;;;;;10.63;6.03;;;;;;;9.32;100.00;101376.84;5213897;28;20032;-72
2023/09/26 05:19:38;;;;;;;10.90;6.10;;;;;;;9.25;100.00;101383.03;5216736;28;20020;-73
2023/09/26 05:22:08;;;;;;;10.23;6.35;;;;;;;9.10;100.00;101382.44;5220365;28;20176;-73
2023/09/26 05:24:38;;;;;;;11.40;6.30;;;;;;;9.03;100.00;101386.91;5220952;28;20032;-73
2023/09/26 05:27:09;;;;;;;10.30;6.53;;;;;;;9.07;100.00;101378.13;5207310;28;20503;-72
2023/09/26 05:29:39;;;;;;;9.18;6.32;;;;;;;9.09;100.00;101381.56;5213867;28;20024;-72
2023/09/26 05:32:09;;;;;;;11.65;7.40;;;;;;;9.16;100.00;101384.03;5226093;28;20025;-72
2023/09/26 05:34:40;;;;;;;11.75;7.22;;;;;;;9.25;100.00;101388.25;5225769;28;20052;-72
2023/09/26 05:37:10;;;;;;;11.45;6.85;;;;;;;9.40;100.00;101387.97;5225686;28;20025;-72
2023/09/26 05:39:40;;;;;;;11.27;6.70;;;;;;;9.44;100.00;101389.63;5228206;28;20059;-72
2023/09/26 05:42:11;;;;;;;9.40;6.55;;;;;;;9.48;100.00;101386.97;5223283;28;20376;-72
2023/09/26 05:44:41;;;;;;;9.98;6.90;;;;;;;9.60;100.00;101385.88;5222964;28;20017;-72
2023/09/26 05:47:11;;;;;;;12.60;6.68;;;;;;;9.63;100.00;101391.06;5225934;28;20024;-73
2023/09/26 05:49:42;;;;;;;11.85;7.07;;;;;;;9.71;100.00;101397.84;5229449;28;20111;-72
2023/09/26 05:52:12;;;;;;;9.77;7.10;;;;;;;9.92;100.00;101393.94;5228194;28;20021;-72
2023/09/26 05:54:42;;;;;;;10.27;6.70;;;;;;;9.87;100.00;101388.84;5227633;28;20017;-73
2023/09/26 05:57:14;;;;;;;13.82;7.22;;;;;;;9.87;100.00;101386.22;5212295;28;20117;-72
2023/09/26 05:59:44;;;;;;;10.93;7.50;;;;;;;10.06;100.00;101389.34;5193062;28;20029;-72
2023/09/26 06:02:16;;;;;;;10.27;6.65;;;;;;;9.88;100.00;101393.16;5230275;28;20074;-73
2023/09/26 06:04:47;;;;;;;10.13;6.90;;;;;;;10.11;100.00;101400.53;5226263;28;20024;-72
2023/09/26 06:07:17;;;;;;;10.23;6.53;;;;;;;10.19;100.00;101396.03;5225560;28;20029;-72
2023/09/26 06:09:48;;;;;;;11.73;6.30;;;;;;;10.22;100.00;101393.34;5231021;28;20115;-72
2023/09/26 06:12:18;;;;;;;8.55;5.70;;;;;;;10.23;100.00;101401.19;5205986;28;20112;-73
2023/09/26 06:14:48;;;;;;;10.07;6.40;;;;;;;10.26;100.00;101395.88;5225825;28;20035;-72
2023/09/26 06:17:19;;;;;;;9.15;6.22;;;;;;;10.34;100.00;101391.34;5223230;28;20033;-72
2023/09/26 06:19:49;;;;;;;10.98;6.43;;;;;;;10.26;100.00;101395.00;5210956;28;20051;-73
2023/09/26 06:22:19;;;;;;;11.38;6.57;;;;;;;10.25;100.00;101396.78;5222287;28;20075;-73
2023/09/26 06:24:50;;;;;;;9.90;6.80;;;;;;;10.27;100.00;101397.59;5226133;28;20044;-73
2023/09/26 06:27:20;;;;;;;9.40;6.97;;;;;;;10.46;100.00;101404.16;5221253;28;20025;-73
2023/09/26 06:29:50;;;;;;;11.10;7.13;;;;;;;10.61;100.00;101402.94;5226458;28;20049;-73
2023/09/26 06:32:21;;;;;;;11.65;7.45;;;;;;;10.71;100.00;101404.47;5224467;28;20025;-73
2023/09/26 06:34:51;;;;;;;9.98;7.07;;;;;;;10.94;100.00;101400.41;5226437;28;20025;-72
2023/09/26 06:37:21;;;;;;;12.38;7.10;;;;;;;11.04;100.00;101407.13;5204802;28;20035;-73
2023/09/26 06:39:52;;;;;;;13.13;7.95;;;;;;;11.05;100.00;101399.25;5222638;28;20486;-72
2023/09/26 06:42:22;;;;;;;10.75;7.50;;;;;;;11.03;100.00;101411.53;5209060;28;20020;-73
2023/09/26 06:44:53;;;;;;;15.23;7.63;;;;;;;11.14;100.00;101416.50;5228279;28;20040;-73
2023/09/26 06:47:24;;;;;;;10.07;7.25;;;;;;;11.31;100.00;101415.16;5222648;28;20419;-73
2023/09/26 06:49:55;;;;;;;13.25;8.13;;;;;;;11.35;100.00;101411.59;5208158;28;20036;-72
2023/09/26 06:52:25;;;;;;;13.10;8.18;;;;;;;11.54;100.00;101407.59;5226242;28;20017;-73
2023/09/26 06:54:55;;;;;;;13.80;8.10;;;;;;;11.65;100.00;101413.41;5226675;28;20025;-72
2023/09/26 06:57:27;;;;;;;15.68;8.32;;;;;;;11.83;100.00;101410.34;5221919;28;20326;-72
2023/09/26 06:59:59;;;;;;;13.75;8.18;;;;;;;12.05;100.00;101416.69;5219277;28;20383;-72
2023/09/26 07:02:29;;;;;;;16.25;8.38;;;;;;;12.23;100.00;101416.16;5206403;28;20798;-73
2023/09/26 07:05:00;;;;;;;12.73;8.55;;;;;;;12.33;100.00;101407.09;5228909;28;20025;-72
2023/09/26 07:07:31;;;;;;;11.60;8.45;;;;;;;12.57;100.00;101406.41;5225888;28;20114;-73
2023/09/26 07:10:02;;;;;;;12.35;8.18;;;;;;;12.79;100.00;101396.13;5209513;28;20451;-72
2023/09/26 07:12:32;;;;;;;13.95;8.25;;;;;;;12.90;100.00;101400.94;5225757;28;20025;-72
2023/09/26 07:15:03;;;;;;;13.50;8.45;;;;;;;13.50;100.00;101408.59;5227381;28;20028;-73
2023/09/26 07:17:33;;;;;;;12.15;8.15;;;;;;;14.12;100.00;101399.38;5227392;28;20060;-73
2023/09/26 07:20:13;;;;;;;12.85;7.55;;;;;;;15.79;100.00;101392.53;5226192;28;20028;-73
2023/09/26 07:22:44;;;;;;;11.63;6.28;;;;;;;17.22;90.50;101383.94;5228960;28;20549;-74
2023/09/26 07:25:15;;;;;;;8.90;5.97;;;;;;;19.52;78.75;101372.94;5192807;28;20028;-73
2023/09/26 07:27:45;;;;;;;8.57;5.32;;;;;;;20.61;75.09;101370.53;5188276;28;20325;-76
2023/09/26 07:30:16;;;;;;;14.60;6.05;;;;;;;20.79;72.06;101373.72;5197793;28;20132;-71
2023/09/26 07:32:46;;;;;;;10.13;5.53;;;;;;;22.10;69.69;101373.56;5181471;28;20510;-70
2023/09/26 07:35:17;;;;;;;6.70;5.50;;;;;;;22.23;69.20;101374.41;5172939;28;20154;-71
2023/09/26 07:37:47;;;;;;;8.27;5.18;;;;;;;22.73;67.32;101372.53;5189448;28;21125;-71
2023/09/26 07:40:17;;;;;;;9.70;6.00;;;;;;;23.17;66.46;101367.44;5203741;28;20565;-71
2023/09/26 07:42:47;;;;;;;8.32;6.22;;;;;;;22.03;69.44;101376.78;5201056;28;20328;-71
2023/09/26 07:45:18;;;;;;;9.98;6.35;;;;;;;23.43;67.72;101373.47;5207785;28;20087;-71
2023/09/26 07:47:48;;;;;;;10.00;5.65;;;;;;;24.16;64.79;101364.16;5207592;28;20045;-71
2023/09/26 07:50:19;;;;;;;9.57;6.00;;;;;;;24.36;63.97;101366.13;5189908;28;20021;-71
2023/09/26 07:52:49;;;;;;;10.15;5.50;;;;;;;22.67;70.11;101371.25;5198614;28;20309;-71
2023/09/26 07:55:20;;;;;;;10.45;5.70;;;;;;;23.34;65.76;101363.53;5202764;28;20110;-71
2023/09/26 07:57:50;;;;;;;8.30;5.68;;;;;;;24.21;66.11;101362.84;5189104;28;20861;-71
2023/09/26 08:00:21;;;;;;;9.70;6.30;;;;;;;24.49;64.99;101364.16;5211604;28;20502;-71
2023/09/26 08:02:51;;;;;;;12.82;6.53;;;;;;;24.73;64.43;101355.88;5205184;28;20518;-71
2023/09/26 08:05:22;;;;;;;9.80;5.90;;;;;;;25.88;61.52;101357.72;5169230;28;20540;-71
2023/09/26 08:07:52;;;;;;;6.80;5.45;;;;;;;26.17;59.82;101358.72;5159181;28;21676;-70
2023/09/26 08:10:23;;;;;;;7.77;5.70;;;;;;;24.25;65.37;101369.63;5146707;28;20071;-70
2023/09/26 08:12:53;;;;;;;11.98;5.13;;;;;;;25.93;62.21;101361.69;5153807;28;20958;-72
2023/09/26 08:15:24;;;;;;;8.80;4.43;;;;;;;26.01;61.73;101356.50;5130738;28;20033;-70
2023/09/26 08:17:54;;;;;;;7.07;5.38;;;;;;;25.25;62.43;101360.47;5180749;28;20300;-71
2023/09/26 08:20:24;;;;;;;5.53;4.47;;;;;;;25.99;63.38;101353.13;5229602;28;20101;-71
2023/09/26 08:22:55;;;;;;;6.18;4.45;;;;;;;25.37;63.66;101354.09;5226759;28;20270;-71
2023/09/26 08:25:26;;;;;;;7.93;4.68;;;;;;;26.06;62.46;101345.38;5199168;28;20028;-71
2023/09/26 08:27:57;;;;;;;8.43;4.68;;;;;;;25.84;63.04;101343.72;5225062;28;20029;-71
2023/09/26 08:30:27;;;;;;;7.28;4.25;;;;;;;26.78;61.38;101340.56;5223593;28;20027;-70
2023/09/26 08:32:57;;;;;;;6.35;4.00;;;;;;;25.94;64.30;101341.09;5224550;28;20036;-71
2023/09/26 08:35:31;;;;;;;6.37;3.83;;;;;;;25.36;63.55;101341.69;5226090;28;20028;-71
2023/09/26 08:38:01;;;;;;;4.63;3.55;;;;;;;26.72;61.17;101339.44;5220473;28;20290;-71
2023/09/26 08:40:32;;;;;;;7.32;3.58;;;;;;;26.21;62.67;101331.47;5220380;28;20028;-71
2023/09/26 08:43:04;;;;;;;7.60;3.47;;;;;;;26.43;62.70;101335.78;5217811;28;20630;-70
2023/09/26 08:45:34;;;;;;;5.03;3.25;;;;;;;26.60;62.77;101337.84;5207986;28;20346;-71
2023/09/26 08:48:05;;;;;;;4.97;3.50;;;;;;;27.05;61.63;101327.31;5225723;28;20136;-71
2023/09/26 08:50:35;;;;;;;5.22;3.28;;;;;;;26.11;63.53;101335.09;5218620;28;20067;-72
2023/09/26 08:53:06;;;;;;;5.47;3.60;;;;;;;25.03;66.07;101321.25;5218435;28;20024;-71
2023/09/26 08:55:38;;;;;;;5.95;3.20;;;;;;;25.90;63.82;101320.91;5202773;28;20263;-71
2023/09/26 08:58:09;;;;;;;6.72;3.70;;;;;;;25.76;66.12;101326.56;5200643;28;20036;-71
2023/09/26 09:00:39;;;;;;;6.43;3.38;;;;;;;25.82;66.58;101323.38;5223988;28;20013;-70
2023/09/26 09:03:10;;;;;;;3.80;2.67;;;;;;;25.34;67.53;101325.75;5221452;28;20023;-71
2023/09/26 09:05:44;;;;;;;5.00;3.15;;;;;;;25.07;67.96;101321.84;5225147;28;20025;-70
2023/09/26 09:08:19;;;;;;;4.50;2.63;;;;;;;24.03;68.82;101321.53;5216830;28;20056;-70
2023/09/26 09:10:54;;;;;;;4.55;2.80;;;;;;;23.33;72.34;101330.63;5225761;28;20562;-70
2023/09/26 09:13:26;;;;;;;6.82;2.42;;;;;;;22.78;74.08;101317.06;5221277;28;20025;-70
2023/09/26 09:16:11;;;;;;;4.57;2.55;;;;;;;22.55;75.86;101322.38;5222650;28;20051;-70
2023/09/26 09:18:50;;;;;;;4.78;2.95;;;;;;;22.20;75.97;101323.16;5213201;28;20090;-70
2023/09/26 09:21:31;;;;;;;5.82;2.85;;;;;;;22.35;76.45;101312.28;5216871;28;20024;-70
2023/09/26 09:24:11;;;;;;;8.38;2.95;;;;;;;22.02;77.82;101305.84;5219640;28;20036;-70
2023/09/26 09:26:42;;;;;;;4.88;2.72;;;;;;;22.40;77.52;101310.16;5213280;28;20024;-71
2023/09/26 09:29:17;;;;;;;3.78;2.50;;;;;;;22.29;76.93;101307.38;5214573;28;20032;-70
2023/09/26 09:31:48;;;;;;;4.38;2.90;;;;;;;22.10;76.92;101306.16;5205869;28;20029;-70
2023/09/26 09:34:21;;;;;;;6.57;2.38;;;;;;;22.30;77.66;101303.78;5223365;28;20078;-71
2023/09/26 09:36:55;;;;;;;6.00;2.67;;;;;;;22.18;78.10;101302.00;5224347;28;20025;-71
2023/09/26 09:39:26;;;;;;;4.43;2.20;;;;;;;22.27;77.13;101298.66;5215740;28;20022;-70
2023/09/26 09:41:57;;;;;;;5.28;2.30;;;;;;;22.13;77.16;101300.59;5209719;28;20063;-71
2023/09/26 09:44:28;;;;;;;5.05;2.60;;;;;;;22.39;77.48;101305.78;5217265;28;20040;-70
2023/09/26 09:47:02;;;;;;;4.82;2.60;;;;;;;22.14;77.34;101295.19;5217126;28;20029;-70
2023/09/26 09:49:40;;;;;;;4.70;2.72;;;;;;;22.48;76.58;101298.94;5219543;28;20025;-70
2023/09/26 09:52:11;;;;;;;5.25;2.83;;;;;;;22.25;76.23;101297.06;5212957;28;20427;-70
2023/09/26 09:54:44;;;;;;;4.03;2.28;;;;;;;22.48;77.21;101296.28;5199628;28;20023;-70
2023/09/26 09:57:17;;;;;;;3.75;2.08;;;;;;;22.09;77.18;101293.81;5203710;28;20021;-70
2023/09/26 09:59:48;;;;;;;3.53;2.30;;;;;;;22.33;78.43;101289.38;5221080;28;20453;-70
2023/09/26 10:02:20;;;;;;;3.78;2.10;;;;;;;22.21;77.53;101291.09;5203334;28;20029;-71
2023/09/26 10:04:55;;;;;;;5.00;2.38;;;;;;;22.14;77.26;101291.66;5219063;28;20031;-70
2023/09/26 10:07:27;;;;;;;4.35;2.72;;;;;;;22.16;78.58;101285.28;5218198;28;20433;-70
2023/09/26 10:09:58;;;;;;;5.03;2.33;;;;;;;22.29;78.97;101285.22;5212343;28;20045;-71
2023/09/26 10:12:29;;;;;;;4.93;2.28;;;;;;;22.09;77.38;101291.16;5213989;28;20391;-70
2023/09/26 10:14:59;;;;;;;3.78;2.30;;;;;;;22.08;78.32;101282.28;5221027;28;20557;-70
2023/09/26 10:17:30;;;;;;;3.17;2.30;;;;;;;22.27;78.94;101274.66;5214896;28;20478;-70
2023/09/26 10:20:00;;;;;;;6.18;2.15;;;;;;;22.36;78.09;101273.16;5217983;28;20028;-70
2023/09/26 10:22:35;;;;;;;3.95;2.00;;;;;;;22.54;78.20;101267.38;5218691;28;20554;-70
2023/09/26 10:25:07;;;;;;;6.82;2.03;;;;;;;22.13;76.47;101273.97;5204438;28;20079;-71
2023/09/26 10:27:42;;;;;;;6.22;2.20;;;;;;;22.10;77.47;101267.03;5211825;28;20128;-70
2023/09/26 10:30:22;;;;;;;4.72;1.77;;;;;;;22.18;77.66;101266.50;5223593;28;20049;-71
2023/09/26 10:32:53;;;;;;;3.78;1.70;;;;;;;22.39;78.94;101260.50;5221676;28;20060;-70
2023/09/26 10:35:25;;;;;;;3.10;1.60;;;;;;;22.31;74.54;101268.19;5221539;28;20502;-71
2023/09/26 10:38:18;;;;;;;3.22;1.50;;;;;;;22.39;77.19;101255.16;5222504;28;20025;-71
2023/09/26 10:40:49;;;;;;;6.75;2.00;;;;;;;22.59;74.28;101253.72;5213808;28;20039;-70
2023/09/26 10:43:19;;;;;;;3.92;1.90;;;;;;;22.65;75.84;101254.09;5217616;28;20470;-70
2023/09/26 10:45:49;;;;;;;2.70;1.35;;;;;;;22.69;74.70;101256.41;5222691;28;20025;-71
2023/09/26 10:48:20;;;;;;;4.25;1.40;;;;;;;22.71;74.70;101245.63;5222709;28;20024;-71
2023/09/26 10:50:51;;;;;;;2.65;1.30;;;;;;;22.37;74.31;101250.88;5207321;28;20035;-71
2023/09/26 10:53:21;;;;;;;2.25;1.17;;;;;;;22.48;74.95;101249.19;5210900;28;20482;-70
2023/09/26 10:55:52;;;;;;;3.05;1.45;;;;;;;22.82;74.74;101251.03;5210349;28;20037;-70
2023/09/26 10:58:22;;;;;;;4.50;1.52;;;;;;;22.89;75.35;101250.44;5214903;28;20598;-70
2023/09/26 11:00:53;;;;;;;2.33;1.40;;;;;;;22.55;74.11;101249.53;5210188;28;20036;-71
2023/09/26 11:03:24;;;;;;;4.00;1.33;;;;;;;22.74;74.15;101248.94;5211148;28;20072;-71
2023/09/26 11:05:55;;;;;;;2.58;1.42;;;;;;;22.81;73.76;101247.50;5219210;28;20082;-70
2023/09/26 11:08:25;;;;;;;2.63;1.40;;;;;;;22.88;75.04;101246.06;5207645;28;20021;-70
2023/09/26 11:10:57;;;;;;;2.20;1.35;;;;;;;22.62;74.20;101240.97;5222634;28;20028;-70
2023/09/26 11:13:27;;;;;;;4.00;1.40;;;;;;;22.81;74.74;101242.16;5214442;28;20027;-70
2023/09/26 11:15:57;;;;;;;2.25;1.17;;;;;;;22.81;72.62;101236.84;5225264;28;20493;-71
2023/09/26 11:18:28;;;;;;;3.05;1.23;;;;;;;22.84;74.40;101236.59;5223840;28;20028;-70
2023/09/26 11:21:00;;;;;;;5.43;1.40;;;;;;;22.79;74.18;101233.44;5225952;28;20098;-71
2023/09/26 11:23:39;;;;;;;1.38;1.00;;;;;;;22.74;72.86;101221.41;5209224;28;20063;-70
2023/09/26 11:26:09;;;;;;;4.70;1.50;;;;;;;22.74;74.34;101234.75;5214333;28;20405;-71
2023/09/26 11:28:40;;;;;;;4.13;1.27;;;;;;;22.72;73.52;101231.34;5205080;28;20029;-71
2023/09/26 11:31:13;;;;;;;2.60;1.25;;;;;;;22.78;73.62;101231.75;5223432;28;20054;-70
2023/09/26 11:33:43;;;;;;;2.65;1.20;;;;;;;22.71;73.03;101219.81;5216233;28;20103;-70
2023/09/26 11:36:14;;;;;;;4.13;1.20;;;;;;;22.55;74.33;101209.56;5215173;28;20123;-70
2023/09/26 11:38:51;;;;;;;4.88;1.20;;;;;;;22.59;74.11;101211.06;5210715;28;20588;-71